createdAt,value
2019-01-25T00:00:23.900Z,13.40
2019-01-25T00:02:55.901Z,13.25
2019-01-25T00:05:26.314Z,13.20
2019-01-25T00:07:56.820Z,15.80
2019-01-25T00:10:27.218Z,13.68
2019-01-25T00:12:57.622Z,13.30
2019-01-25T00:15:28.094Z,12.47
2019-01-25T00:17:58.414Z,12.07
2019-01-25T00:20:28.839Z,11.97
2019-01-25T00:22:59.240Z,11.35
2019-01-25T00:25:29.675Z,12.65
2019-01-25T00:27:59.984Z,12.43
2019-01-25T00:30:30.868Z,14.83
2019-01-25T00:33:01.200Z,15.50
2019-01-25T00:35:31.496Z,13.10
2019-01-25T00:38:01.949Z,13.30
2019-01-25T00:40:32.344Z,13.68
2019-01-25T00:43:02.726Z,10.65
2019-01-25T00:45:33.023Z,12.30
2019-01-25T00:48:03.310Z,11.65
2019-01-25T00:50:33.608Z,12.70
2019-01-25T00:53:03.994Z,10.72
2019-01-25T00:55:34.330Z,10.10
2019-01-25T00:58:04.582Z,12.15
2019-01-25T01:00:34.948Z,11.50
2019-01-25T01:03:06.114Z,12.47
2019-01-25T01:05:36.398Z,10.18
2019-01-25T01:08:06.789Z,10.00
2019-01-25T01:10:37.095Z,12.68
2019-01-25T01:13:07.478Z,11.18
2019-01-25T01:15:37.825Z,10.65
2019-01-25T01:18:08.289Z,11.45
2019-01-25T01:20:38.703Z,10.88
2019-01-25T01:23:09.610Z,12.20
2019-01-25T01:25:40.052Z,11.38
2019-01-25T01:28:10.480Z,11.30
2019-01-25T01:30:40.815Z,11.03
2019-01-25T01:33:11.276Z,10.43
2019-01-25T01:35:41.529Z,9.78
2019-01-25T01:38:11.887Z,11.12
2019-01-25T01:40:42.202Z,11.05
2019-01-25T01:43:12.628Z,11.22
2019-01-25T01:45:42.998Z,12.50
2019-01-25T01:48:13.425Z,11.90
2019-01-25T01:50:43.720Z,11.03
2019-01-25T01:53:14.178Z,9.73
2019-01-25T01:55:44.576Z,10.35
2019-01-25T01:58:14.900Z,10.38
2019-01-25T02:00:45.323Z,9.03
2019-01-25T02:03:15.557Z,10.08
2019-01-25T02:05:47.018Z,10.18
2019-01-25T02:08:17.384Z,11.05
2019-01-25T02:10:47.900Z,9.00
2019-01-25T02:13:18.277Z,9.03
2019-01-25T02:15:48.651Z,9.45
2019-01-25T02:18:18.929Z,10.18
2019-01-25T02:20:49.289Z,9.90
2019-01-25T02:23:19.555Z,10.25
2019-01-25T02:25:49.875Z,8.90
2019-01-25T02:28:20.139Z,9.88
2019-01-25T02:30:50.500Z,9.40
2019-01-25T02:33:20.883Z,7.40
2019-01-25T02:35:51.293Z,7.92
2019-01-25T02:38:21.777Z,8.88
2019-01-25T02:40:52.272Z,9.50
2019-01-25T02:43:22.680Z,9.43
2019-01-25T02:45:53.035Z,9.65
2019-01-25T02:48:23.420Z,9.08
2019-01-25T02:50:53.770Z,9.05
2019-01-25T02:53:24.197Z,7.75
2019-01-25T02:55:54.500Z,9.00
2019-01-25T02:58:24.916Z,7.72
2019-01-25T03:00:55.094Z,8.55
2019-01-25T03:03:25.421Z,6.97
2019-01-25T03:05:55.738Z,9.35
2019-01-25T03:08:26.062Z,8.93
2019-01-25T03:10:56.544Z,9.60
2019-01-25T03:13:26.879Z,7.53
2019-01-25T03:15:57.190Z,6.97
2019-01-25T03:18:27.604Z,9.33
2019-01-25T03:20:57.893Z,9.95
2019-01-25T03:23:28.195Z,7.47
2019-01-25T03:25:58.444Z,8.58
2019-01-25T03:28:28.860Z,8.35
2019-01-25T03:30:59.226Z,7.58
2019-01-25T03:33:29.637Z,8.38
2019-01-25T03:35:59.903Z,7.90
2019-01-25T03:38:30.201Z,9.30
2019-01-25T03:41:00.486Z,9.65
2019-01-25T03:43:30.897Z,7.42
2019-01-25T03:46:01.267Z,6.50
2019-01-25T03:48:31.634Z,7.60
2019-01-25T03:51:02.018Z,6.85
2019-01-25T03:53:32.644Z,8.60
2019-01-25T03:56:03.106Z,7.40
2019-01-25T03:58:33.481Z,7.25
2019-01-25T04:01:03.887Z,7.15
2019-01-25T04:03:34.125Z,7.55
2019-01-25T04:06:04.614Z,7.85
2019-01-25T04:08:34.874Z,8.93
2019-01-25T04:11:05.306Z,6.35
2019-01-25T04:13:35.660Z,7.05
2019-01-25T04:16:05.955Z,7.20
2019-01-25T04:18:36.372Z,6.47
2019-01-25T04:21:06.691Z,7.33
2019-01-25T04:23:37.233Z,7.20
2019-01-25T04:26:07.593Z,7.70
2019-01-25T04:28:37.995Z,6.53
2019-01-25T04:31:08.333Z,8.03
2019-01-25T04:33:38.622Z,6.95
2019-01-25T04:36:09.007Z,7.97
2019-01-25T04:38:39.486Z,6.22
2019-01-25T04:41:11.756Z,7.08
2019-01-25T04:43:42.001Z,7.62
2019-01-25T04:46:12.237Z,6.15
2019-01-25T04:48:42.719Z,6.83
2019-01-25T04:51:13.160Z,6.95
2019-01-25T04:53:43.459Z,7.37
2019-01-25T04:56:13.836Z,7.00
2019-01-25T04:58:44.166Z,5.33
2019-01-25T05:01:14.616Z,7.10
2019-01-25T05:03:44.996Z,7.30
2019-01-25T05:06:18.034Z,6.72
2019-01-25T05:08:48.341Z,6.55
2019-01-25T05:11:20.363Z,6.47
2019-01-25T05:13:50.988Z,6.72
2019-01-25T05:16:21.405Z,6.85
2019-01-25T05:18:51.786Z,5.83
2019-01-25T05:21:25.875Z,7.50
2019-01-25T05:23:56.256Z,7.08
2019-01-25T05:26:26.603Z,8.20
2019-01-25T05:28:57.035Z,8.90
2019-01-25T05:31:29.255Z,7.50
2019-01-25T05:33:59.627Z,4.78
2019-01-25T05:36:30.042Z,5.65
2019-01-25T05:39:00.420Z,6.15
2019-01-25T05:41:30.955Z,6.78
2019-01-25T05:44:01.310Z,6.67
2019-01-25T05:46:31.741Z,6.12
2019-01-25T05:49:02.103Z,6.65
2019-01-25T05:51:33.756Z,7.28
2019-01-25T05:54:04.296Z,8.95
2019-01-25T05:56:34.607Z,7.08
2019-01-25T05:59:05.034Z,6.50
2019-01-25T06:01:36.964Z,7.17
2019-01-25T06:04:07.530Z,7.65
2019-01-25T06:06:38.062Z,7.12
2019-01-25T06:09:08.852Z,6.65
2019-01-25T06:11:40.245Z,5.50
2019-01-25T06:14:11.208Z,7.20
2019-01-25T06:16:42.736Z,6.90
2019-01-25T06:19:13.107Z,7.33
2019-01-25T06:21:43.411Z,7.58
2019-01-25T06:24:13.760Z,6.42
2019-01-25T06:26:45.951Z,7.40
2019-01-25T06:29:16.375Z,6.62
2019-01-25T06:31:46.763Z,6.87
2019-01-25T06:34:17.164Z,6.87
2019-01-25T06:36:47.437Z,6.80
2019-01-25T06:39:17.830Z,5.92
2019-01-25T06:41:48.180Z,7.05
2019-01-25T06:44:18.542Z,7.53
2019-01-25T06:46:48.740Z,7.92
2019-01-25T06:49:20.101Z,6.25
2019-01-25T06:51:50.482Z,9.63
2019-01-25T06:54:20.747Z,6.37
2019-01-25T06:56:50.973Z,6.30
2019-01-25T06:59:27.240Z,8.13
2019-01-25T07:02:07.727Z,11.22
2019-01-25T07:04:38.078Z,10.18
2019-01-25T07:07:16.388Z,9.75
2019-01-25T07:09:49.692Z,9.28
2019-01-25T07:12:20.055Z,10.18
2019-01-25T07:14:51.307Z,10.85
2019-01-25T07:17:27.242Z,9.03
2019-01-25T07:19:58.234Z,8.98
2019-01-25T07:22:30.275Z,56.92
2019-01-25T07:25:00.660Z,90.62
2019-01-25T07:27:32.145Z,84.05
2019-01-25T07:32:48.585Z,50.63
2019-01-25T07:35:22.241Z,39.10
2019-01-25T07:49:25.269Z,21.07
2019-01-25T07:58:18.495Z,21.95
2019-01-25T08:03:52.470Z,19.50
2019-01-25T08:06:26.822Z,19.17
2019-01-25T08:09:02.510Z,21.60
2019-01-25T08:14:26.291Z,17.50
2019-01-25T08:17:17.519Z,19.27
2019-01-25T08:19:55.248Z,17.92
2019-01-25T08:22:43.422Z,15.30
2019-01-25T08:25:13.595Z,24.63
2019-01-25T08:27:50.659Z,15.80
2019-01-25T08:30:25.880Z,18.30
2019-01-25T08:32:56.750Z,14.03
2019-01-25T08:35:31.720Z,14.18
2019-01-25T08:38:02.522Z,15.43
2019-01-25T08:40:33.248Z,14.28
2019-01-25T08:43:03.751Z,20.82
2019-01-25T08:45:36.205Z,11.12
2019-01-25T08:48:07.292Z,17.85
2019-01-25T08:50:39.311Z,14.75
2019-01-25T08:53:09.912Z,21.12
2019-01-25T08:55:40.934Z,13.90
2019-01-25T08:58:11.706Z,14.13
2019-01-25T09:00:42.402Z,16.80
2019-01-25T09:03:12.880Z,11.57
2019-01-25T09:05:43.767Z,17.50
2019-01-25T09:08:14.349Z,11.73
2019-01-25T09:10:44.854Z,18.25
2019-01-25T09:13:19.923Z,21.62
2019-01-25T09:18:46.379Z,15.72
2019-01-25T09:24:25.396Z,26.43
2019-01-25T09:26:53.134Z,26.97
2019-01-25T09:29:25.705Z,21.62
2019-01-25T09:36:13.787Z,22.22
2019-01-25T09:38:47.383Z,28.62
2019-01-25T09:41:17.865Z,42.88
2019-01-25T09:43:48.232Z,28.20
2019-01-25T09:46:18.987Z,20.50
2019-01-25T09:48:53.563Z,22.82
2019-01-25T09:51:24.120Z,31.97
2019-01-25T09:53:54.880Z,27.93
2019-01-25T09:56:27.766Z,25.62
2019-01-25T09:59:40.558Z,18.95
2019-01-25T10:02:45.534Z,18.12
2019-01-25T10:05:25.280Z,22.40
2019-01-25T10:07:58.467Z,27.22
2019-01-25T10:10:29.222Z,19.87
2019-01-25T10:13:03.436Z,23.63
2019-01-25T10:15:46.011Z,25.70
2019-01-25T10:18:16.556Z,27.73
2019-01-25T10:20:47.987Z,30.82
2019-01-25T10:26:23.370Z,41.15
2019-01-25T10:31:40.128Z,29.57
2019-01-25T10:34:10.468Z,31.37
2019-01-25T10:36:44.603Z,32.67
2019-01-25T10:39:16.676Z,32.98
2019-01-25T10:41:47.480Z,41.53
2019-01-25T10:44:23.371Z,38.70
2019-01-25T10:46:57.785Z,24.77
2019-01-25T10:49:33.122Z,39.10
2019-01-25T10:52:03.574Z,25.70
2019-01-25T11:17:12.902Z,34.40
2019-01-25T11:21:03.725Z,39.42
2019-01-25T11:22:45.199Z,40.70
2019-01-25T11:25:51.644Z,33.70
2019-01-25T11:28:27.488Z,27.07
2019-01-25T11:31:00.038Z,24.92
2019-01-25T11:33:34.255Z,37.28
2019-01-25T11:36:11.331Z,23.52
2019-01-25T11:38:47.057Z,33.48
2019-01-25T11:41:20.395Z,31.97
2019-01-25T11:43:52.278Z,29.12
2019-01-25T11:46:26.147Z,28.77
2019-01-25T11:49:05.723Z,23.57
2019-01-25T11:51:39.571Z,25.00
2019-01-25T11:54:10.320Z,22.20
2019-01-25T11:57:53.505Z,31.95
2019-01-25T11:59:54.506Z,29.12
2019-01-25T12:02:38.821Z,33.42
